Weather at Promachi Heliport

Public forecast

Using degrees Celsius for public forecast. Weather courtesy of forecast.io.

Closest aviation weather report (METAR) to Promachi Heliport

Closest report is Kozani National Airport Filippos, 44.5 nm (82.4 km) S.

2024/05/24 00:20 (retrieved 29 minutes ago)

LGKZ 240020Z AUTO 01004KT //// // ////// 11/07 Q1018 RE//

Closest aviation forecast (TAF) to Promachi Heliport

Forecast is more than 6 hours old.

Closest forecast is Kukës International Airport, 94.9 nm (175.7 km) NW.

2024/05/23 18:00 Ammendment (retrieved 7 hours ago)

TAF AMD LAKU 231900Z 2318/2418 CNL